PWSweather.com
Personal Weather Stations
Station Observations
KCARIDGE3
Ridgecrest, CA 93555

Ridgecrest, CA 93555

Lat: 35.62083817, Lon: -117.6733017

Elevation: 2315

Station Type:

High Low Average
Temperature 62.2°F16.8°F 48.7°F9.3°F 53.9°F12.2°F
Dew Point 49.6°F9.8°F 33.3°F0.7°F 41.8°F5.4°F
Winds 8.1 mph NW13.0 mph NW Calm Calm 1.9 mph 3.1 mph
Wind Gusts 8.9 mph14.3 mph -- 1.9 mph3.1 mph
Humidity 89% 42% 65%
Pressure 0.00 in0.00 in 0.00 in0.00 in -
Precipitation 5.71 in145.00 in - -
Hour Temp Dew Point Humidity Winds Wind Gusts Pressure Precip Precip Rate Daily Precip Total
12:02 AM 54.3°F12.4°C 34.0°F1.1°C 46% 2.0 mph ESE3.2 kmh ESE -- -338605.1 mb 0.00 in0.0 mm 0.00 in/hr0.0 mm/hr 0.00 in0.0 mm
12:07 AM 54.0°F12.2°C 33.6°F0.9°C 46% 0.9 mph ESE1.4 kmh ESE 2.9 mph4.7 kmh -338605.1 mb 0.00 in0.0 mm 0.00 in/hr0.0 mm/hr 0.00 in0.0 mm
12:12 AM 53.6°F12.0°C 33.3°F0.7°C 46% 0.9 mph ESE1.4 kmh ESE 0.9 mph1.4 kmh -338605.1 mb 0.00 in0.0 mm 0.00 in/hr0.0 mm/hr 0.00 in0.0 mm
12:17 AM 53.4°F11.9°C 33.6°F0.9°C 47% 0.9 mph ESE1.4 kmh ESE -- -338605.1 mb 0.00 in0.0 mm 0.00 in/hr0.0 mm/hr 0.00 in0.0 mm
12:22 AM 53.2°F11.8°C 34.0°F1.1°C 48% 2.0 mph SE3.2 kmh SE 4.9 mph7.9 kmh -338605.1 mb 0.00 in0.0 mm 0.00 in/hr0.0 mm/hr 0.00 in0.0 mm
12:27 AM 53.1°F11.7°C 33.8°F1.0°C 48% 4.0 mph SE6.4 kmh SE 2.9 mph4.7 kmh -338605.1 mb 0.00 in0.0 mm 0.00 in/hr0.0 mm/hr 0.00 in0.0 mm
12:32 AM 52.9°F11.6°C 33.8°F1.0°C 48% 4.0 mph SE6.4 kmh SE 2.0 mph3.2 kmh -338605.1 mb 0.00 in0.0 mm 0.00 in/hr0.0 mm/hr 0.00 in0.0 mm
12:37 AM 52.9°F11.6°C 33.8°F1.0°C 48% 2.0 mph SE3.2 kmh SE 2.0 mph3.2 kmh -338605.1 mb 0.00 in0.0 mm 0.00 in/hr0.0 mm/hr 0.00 in0.0 mm
12:42 AM 52.9°F11.6°C 33.8°F1.0°C 48% 2.0 mph SE3.2 kmh SE 2.0 mph3.2 kmh -338605.1 mb 0.00 in0.0 mm 0.00 in/hr0.0 mm/hr 0.00 in0.0 mm
12:47 AM 52.9°F11.6°C 33.8°F1.0°C 48% 2.0 mph SE3.2 kmh SE 2.9 mph4.7 kmh -338605.1 mb 0.00 in0.0 mm 0.00 in/hr0.0 mm/hr 0.00 in0.0 mm
12:52 AM 52.9°F11.6°C 33.8°F1.0°C 48% 2.0 mph SE3.2 kmh SE 2.9 mph4.7 kmh -338605.1 mb 0.00 in0.0 mm 0.00 in/hr0.0 mm/hr 0.00 in0.0 mm
12:57 AM 52.9°F11.6°C 33.8°F1.0°C 48% 2.0 mph SE3.2 kmh SE 4.9 mph7.9 kmh -338605.1 mb 0.00 in0.0 mm 0.00 in/hr0.0 mm/hr 0.00 in0.0 mm
01:02 AM 52.9°F11.6°C 33.8°F1.0°C 48% 4.0 mph SE6.4 kmh SE 4.0 mph6.4 kmh -338605.1 mb 0.00 in0.0 mm 0.00 in/hr0.0 mm/hr 0.00 in0.0 mm
01:07 AM 53.1°F11.7°C 33.8°F1.0°C 48% 4.0 mph SE6.4 kmh SE 4.0 mph6.4 kmh -338605.1 mb 0.00 in0.0 mm 0.00 in/hr0.0 mm/hr 0.00 in0.0 mm
01:12 AM 53.2°F11.8°C 34.0°F1.1°C 48% 4.0 mph SE6.4 kmh SE 4.9 mph7.9 kmh -338605.1 mb 0.00 in0.0 mm 0.00 in/hr0.0 mm/hr 0.00 in0.0 mm
01:17 AM 53.4°F11.9°C 33.6°F0.9°C 47% 4.9 mph SE7.9 kmh SE 2.9 mph4.7 kmh -338605.1 mb 0.00 in0.0 mm 0.00 in/hr0.0 mm/hr 0.00 in0.0 mm
01:22 AM 53.2°F11.8°C 34.0°F1.1°C 48% 2.9 mph SE4.7 kmh SE 0.9 mph1.4 kmh -338605.1 mb 0.00 in0.0 mm 0.00 in/hr0.0 mm/hr 0.00 in0.0 mm
01:27 AM 53.1°F11.7°C 33.8°F1.0°C 48% 0.9 mph SE1.4 kmh SE -- -338605.1 mb 0.00 in0.0 mm 0.00 in/hr0.0 mm/hr 0.00 in0.0 mm
01:32 AM 52.9°F11.6°C 33.8°F1.0°C 48% Calm Calm -- -338605.1 mb 0.00 in0.0 mm 0.00 in/hr0.0 mm/hr 0.00 in0.0 mm
01:37 AM 52.9°F11.6°C 33.8°F1.0°C 48% Calm Calm -- -338605.1 mb 0.00 in0.0 mm 0.00 in/hr0.0 mm/hr 0.00 in0.0 mm
01:42 AM 52.9°F11.6°C 33.8°F1.0°C 48% Calm Calm 2.9 mph4.7 kmh -338605.1 mb 0.00 in0.0 mm 0.00 in/hr0.0 mm/hr 0.00 in0.0 mm
01:47 AM 52.9°F11.6°C 33.8°F1.0°C 48% 0.9 mph SE1.4 kmh SE 4.0 mph6.4 kmh -338605.1 mb 0.00 in0.0 mm 0.00 in/hr0.0 mm/hr 0.00 in0.0 mm
01:52 AM 52.9°F11.6°C 33.8°F1.0°C 48% 2.0 mph SE3.2 kmh SE 2.0 mph3.2 kmh -338605.1 mb 0.00 in0.0 mm 0.00 in/hr0.0 mm/hr 0.00 in0.0 mm
01:57 AM 52.9°F11.6°C 33.8°F1.0°C 48% 2.9 mph SE4.7 kmh SE 2.0 mph3.2 kmh -338605.1 mb 0.00 in0.0 mm 0.00 in/hr0.0 mm/hr 0.00 in0.0 mm
02:02 AM 52.9°F11.6°C 33.8°F1.0°C 48% 2.0 mph SE3.2 kmh SE 2.0 mph3.2 kmh -338605.1 mb 0.00 in0.0 mm 0.00 in/hr0.0 mm/hr 0.00 in0.0 mm
02:07 AM 52.9°F11.6°C 33.8°F1.0°C 48% 2.9 mph SE4.7 kmh SE 4.0 mph6.4 kmh -338605.1 mb 0.00 in0.0 mm 0.00 in/hr0.0 mm/hr 0.00 in0.0 mm
02:12 AM 52.9°F11.6°C 33.8°F1.0°C 48% 4.0 mph SE6.4 kmh SE 2.0 mph3.2 kmh -338605.1 mb 0.00 in0.0 mm 0.00 in/hr0.0 mm/hr 0.00 in0.0 mm
02:17 AM 52.9°F11.6°C 34.2°F1.2°C 49% 2.9 mph SE4.7 kmh SE 2.0 mph3.2 kmh -338605.1 mb 0.00 in0.0 mm 0.00 in/hr0.0 mm/hr 0.00 in0.0 mm
02:22 AM 52.9°F11.6°C 33.8°F1.0°C 48% 0.9 mph SE1.4 kmh SE 2.9 mph4.7 kmh -338605.1 mb 0.00 in0.0 mm 0.00 in/hr0.0 mm/hr 0.00 in0.0 mm
02:27 AM 52.7°F11.5°C 34.2°F1.2°C 49% 2.9 mph SE4.7 kmh SE 6.0 mph9.7 kmh -338605.1 mb 0.00 in0.0 mm 0.00 in/hr0.0 mm/hr 0.00 in0.0 mm
02:32 AM 52.9°F11.6°C 33.8°F1.0°C 48% 4.9 mph SSW7.9 kmh SSW 4.0 mph6.4 kmh -338605.1 mb 0.00 in0.0 mm 0.00 in/hr0.0 mm/hr 0.00 in0.0 mm
02:37 AM 52.9°F11.6°C 33.8°F1.0°C 48% 4.0 mph SSW6.4 kmh SSW 0.9 mph1.4 kmh -338605.1 mb 0.00 in0.0 mm 0.00 in/hr0.0 mm/hr 0.00 in0.0 mm
02:42 AM 53.1°F11.7°C 33.8°F1.0°C 48% 2.0 mph SSW3.2 kmh SSW 2.0 mph3.2 kmh -338605.1 mb 0.00 in0.0 mm 0.00 in/hr0.0 mm/hr 0.00 in0.0 mm
02:47 AM 53.1°F11.7°C 33.8°F1.0°C 48% 2.0 mph SSW3.2 kmh SSW 2.0 mph3.2 kmh -338605.1 mb 0.00 in0.0 mm 0.00 in/hr0.0 mm/hr 0.00 in0.0 mm
02:52 AM 53.2°F11.8°C 33.4°F0.8°C 47% 2.0 mph SSW3.2 kmh SSW -- -338605.1 mb 0.00 in0.0 mm 0.00 in/hr0.0 mm/hr 0.00 in0.0 mm
02:57 AM 53.2°F11.8°C 34.0°F1.1°C 48% 0.9 mph SSW1.4 kmh SSW -- -338605.1 mb 0.00 in0.0 mm 0.00 in/hr0.0 mm/hr 0.00 in0.0 mm
03:02 AM 52.9°F11.6°C 33.8°F1.0°C 48% 0.9 mph SSW1.4 kmh SSW 2.9 mph4.7 kmh -338605.1 mb 0.00 in0.0 mm 0.00 in/hr0.0 mm/hr 0.00 in0.0 mm
03:07 AM 52.2°F11.2°C 33.6°F0.9°C 49% 2.0 mph SW3.2 kmh SW 2.0 mph3.2 kmh -338605.1 mb 0.00 in0.0 mm 0.00 in/hr0.0 mm/hr 0.00 in0.0 mm
03:12 AM 52.0°F11.1°C 33.4°F0.8°C 49% 2.0 mph SW3.2 kmh SW 0.9 mph1.4 kmh -338605.1 mb 0.00 in0.0 mm 0.00 in/hr0.0 mm/hr 0.00 in0.0 mm
03:17 AM 51.8°F11.0°C 33.8°F1.0°C 50% 2.0 mph SW3.2 kmh SW 0.9 mph1.4 kmh -338605.1 mb 0.00 in0.0 mm 0.00 in/hr0.0 mm/hr 0.00 in0.0 mm
03:22 AM 51.6°F10.9°C 33.6°F0.9°C 50% 0.9 mph SW1.4 kmh SW -- -338605.1 mb 0.00 in0.0 mm 0.00 in/hr0.0 mm/hr 0.00 in0.0 mm
03:27 AM 51.6°F10.9°C 33.6°F0.9°C 50% Calm Calm -- -338605.1 mb 0.00 in0.0 mm 0.00 in/hr0.0 mm/hr 0.00 in0.0 mm
03:32 AM 51.4°F10.8°C 33.4°F0.8°C 50% Calm Calm -- -338605.1 mb 0.00 in0.0 mm 0.00 in/hr0.0 mm/hr 0.00 in0.0 mm
03:37 AM 51.3°F10.7°C 33.8°F1.0°C 51% 0.9 mph SW1.4 kmh SW 2.0 mph3.2 kmh -338605.1 mb 0.00 in0.0 mm 0.00 in/hr0.0 mm/hr 0.00 in0.0 mm
03:42 AM 51.1°F10.6°C 33.6°F0.9°C 51% 2.0 mph SW3.2 kmh SW 2.0 mph3.2 kmh -338605.1 mb 0.00 in0.0 mm 0.00 in/hr0.0 mm/hr 0.00 in0.0 mm
03:47 AM 50.7°F10.4°C 33.3°F0.7°C 51% 2.0 mph SW3.2 kmh SW 0.9 mph1.4 kmh -338605.1 mb 0.00 in0.0 mm 0.00 in/hr0.0 mm/hr 0.00 in0.0 mm
03:52 AM 50.7°F10.4°C 33.8°F1.0°C 52% 0.9 mph SW1.4 kmh SW -- -338605.1 mb 0.00 in0.0 mm 0.00 in/hr0.0 mm/hr 0.00 in0.0 mm
03:57 AM 50.7°F10.4°C 33.8°F1.0°C 52% 0.9 mph SSE1.4 kmh SSE 2.9 mph4.7 kmh -338605.1 mb 0.00 in0.0 mm 0.00 in/hr0.0 mm/hr 0.00 in0.0 mm
04:02 AM 50.7°F10.4°C 34.2°F1.2°C 53% 2.0 mph SE3.2 kmh SE 2.0 mph3.2 kmh -338605.1 mb 0.00 in0.0 mm 0.00 in/hr0.0 mm/hr 0.00 in0.0 mm
04:07 AM 50.7°F10.4°C 34.2°F1.2°C 53% 2.0 mph SE3.2 kmh SE 0.9 mph1.4 kmh -338605.1 mb 0.00 in0.0 mm 0.00 in/hr0.0 mm/hr 0.00 in0.0 mm
04:12 AM 50.5°F10.3°C 34.0°F1.1°C 53% 0.9 mph SE1.4 kmh SE 2.9 mph4.7 kmh -338605.1 mb 0.00 in0.0 mm 0.00 in/hr0.0 mm/hr 0.00 in0.0 mm
04:17 AM 50.5°F10.3°C 34.5°F1.4°C 54% 2.0 mph SE3.2 kmh SE 0.9 mph1.4 kmh -338605.1 mb 0.00 in0.0 mm 0.00 in/hr0.0 mm/hr 0.00 in0.0 mm
04:22 AM 50.4°F10.2°C 34.3°F1.3°C 54% 2.0 mph SE3.2 kmh SE 0.9 mph1.4 kmh -338605.1 mb 0.00 in0.0 mm 0.00 in/hr0.0 mm/hr 0.00 in0.0 mm
04:27 AM 50.5°F10.3°C 34.5°F1.4°C 54% 0.9 mph SE1.4 kmh SE -- -338605.1 mb 0.00 in0.0 mm 0.00 in/hr0.0 mm/hr 0.00 in0.0 mm
04:32 AM 50.5°F10.3°C 34.5°F1.4°C 54% 0.9 mph SE1.4 kmh SE -- -338605.1 mb 0.00 in0.0 mm 0.00 in/hr0.0 mm/hr 0.00 in0.0 mm
04:37 AM 50.5°F10.3°C 34.5°F1.4°C 54% Calm Calm -- -338605.1 mb 0.00 in0.0 mm 0.00 in/hr0.0 mm/hr 0.00 in0.0 mm
04:42 AM 50.2°F10.1°C 34.2°F1.2°C 54% Calm Calm -- -338605.1 mb 0.00 in0.0 mm 0.00 in/hr0.0 mm/hr 0.00 in0.0 mm
04:47 AM 50.4°F10.2°C 34.3°F1.3°C 54% Calm Calm -- -338605.1 mb 0.00 in0.0 mm 0.00 in/hr0.0 mm/hr 0.00 in0.0 mm
04:52 AM 50.7°F10.4°C 34.2°F1.2°C 53% Calm Calm 2.0 mph3.2 kmh -338605.1 mb 0.00 in0.0 mm 0.00 in/hr0.0 mm/hr 0.00 in0.0 mm
04:57 AM 51.1°F10.6°C 34.5°F1.4°C 53% 0.9 mph SE1.4 kmh SE 0.9 mph1.4 kmh -338605.1 mb 0.00 in0.0 mm 0.00 in/hr0.0 mm/hr 0.00 in0.0 mm
05:02 AM 51.1°F10.6°C 34.0°F1.1°C 52% 2.0 mph SE3.2 kmh SE 2.0 mph3.2 kmh -338605.1 mb 0.00 in0.0 mm 0.00 in/hr0.0 mm/hr 0.00 in0.0 mm
05:07 AM 51.1°F10.6°C 34.5°F1.4°C 53% 2.0 mph SE3.2 kmh SE -- -338605.1 mb 0.00 in0.0 mm 0.00 in/hr0.0 mm/hr 0.00 in0.0 mm
05:12 AM 50.7°F10.4°C 35.1°F1.7°C 55% 0.9 mph SE1.4 kmh SE 2.0 mph3.2 kmh -338605.1 mb 0.00 in0.0 mm 0.00 in/hr0.0 mm/hr 0.00 in0.0 mm
05:17 AM 50.4°F10.2°C 34.9°F1.6°C 55% 0.9 mph SE1.4 kmh SE -- -338605.1 mb 0.00 in0.0 mm 0.00 in/hr0.0 mm/hr 0.00 in0.0 mm
05:22 AM 50.2°F10.1°C 35.1°F1.7°C 56% Calm Calm 2.9 mph4.7 kmh -338605.1 mb 0.00 in0.0 mm 0.00 in/hr0.0 mm/hr 0.00 in0.0 mm
05:27 AM 50.2°F10.1°C 34.7°F1.5°C 55% 0.9 mph SE1.4 kmh SE 2.0 mph3.2 kmh -338605.1 mb 0.00 in0.0 mm 0.00 in/hr0.0 mm/hr 0.00 in0.0 mm
05:32 AM 49.8°F9.9°C 34.3°F1.3°C 55% 2.0 mph ESE3.2 kmh ESE 0.9 mph1.4 kmh -338605.1 mb 0.00 in0.0 mm 0.00 in/hr0.0 mm/hr 0.00 in0.0 mm
05:37 AM 49.8°F9.9°C 34.3°F1.3°C 55% 2.0 mph ESE3.2 kmh ESE 2.9 mph4.7 kmh -338605.1 mb 0.00 in0.0 mm 0.00 in/hr0.0 mm/hr 0.00 in0.0 mm
05:42 AM 49.6°F9.8°C 34.5°F1.4°C 56% 2.0 mph ESE3.2 kmh ESE 0.9 mph1.4 kmh -338605.1 mb 0.00 in0.0 mm 0.00 in/hr0.0 mm/hr 0.00 in0.0 mm
05:47 AM 49.5°F9.7°C 34.3°F1.3°C 56% 2.0 mph ESE3.2 kmh ESE 0.9 mph1.4 kmh -338605.1 mb 0.00 in0.0 mm 0.00 in/hr0.0 mm/hr 0.00 in0.0 mm
05:52 AM 49.5°F9.7°C 34.3°F1.3°C 56% 0.9 mph ESE1.4 kmh ESE -- -338605.1 mb 0.00 in0.0 mm 0.00 in/hr0.0 mm/hr 0.00 in0.0 mm
05:57 AM 49.5°F9.7°C 34.3°F1.3°C 56% Calm Calm 0.9 mph1.4 kmh -338605.1 mb 0.00 in0.0 mm 0.00 in/hr0.0 mm/hr 0.00 in0.0 mm
06:02 AM 49.5°F9.7°C 34.9°F1.6°C 57% Calm Calm -- -338605.1 mb 0.00 in0.0 mm 0.00 in/hr0.0 mm/hr 0.00 in0.0 mm
06:07 AM 49.5°F9.7°C 34.9°F1.6°C 57% 0.9 mph ESE1.4 kmh ESE 0.9 mph1.4 kmh -338605.1 mb 0.00 in0.0 mm 0.00 in/hr0.0 mm/hr 0.00 in0.0 mm
06:12 AM 49.5°F9.7°C 34.3°F1.3°C 56% 0.9 mph ESE1.4 kmh ESE 0.9 mph1.4 kmh -338605.1 mb 0.00 in0.0 mm 0.00 in/hr0.0 mm/hr 0.00 in0.0 mm
06:17 AM 49.5°F9.7°C 34.9°F1.6°C 57% 0.9 mph ESE1.4 kmh ESE 0.9 mph1.4 kmh -338605.1 mb 0.00 in0.0 mm 0.00 in/hr0.0 mm/hr 0.00 in0.0 mm
06:22 AM 49.5°F9.7°C 35.2°F1.8°C 58% 0.9 mph ESE1.4 kmh ESE -- -338605.1 mb 0.00 in0.0 mm 0.00 in/hr0.0 mm/hr 0.00 in0.0 mm
06:27 AM 49.3°F9.6°C 35.1°F1.7°C 58% 0.9 mph ESE1.4 kmh ESE 2.0 mph3.2 kmh -338605.1 mb 0.00 in0.0 mm 0.00 in/hr0.0 mm/hr 0.00 in0.0 mm
06:32 AM 48.9°F9.4°C 34.9°F1.6°C 58% 0.9 mph ESE1.4 kmh ESE -- -338605.1 mb 0.00 in0.0 mm 0.00 in/hr0.0 mm/hr 0.00 in0.0 mm
06:37 AM 48.9°F9.4°C 34.9°F1.6°C 58% 0.9 mph ESE1.4 kmh ESE 2.0 mph3.2 kmh -338605.1 mb 0.00 in0.0 mm 0.00 in/hr0.0 mm/hr 0.00 in0.0 mm
06:42 AM 48.9°F9.4°C 35.2°F1.8°C 59% 0.9 mph ESE1.4 kmh ESE 0.9 mph1.4 kmh -338605.1 mb 0.00 in0.0 mm 0.00 in/hr0.0 mm/hr 0.00 in0.0 mm
06:47 AM 48.7°F9.3°C 35.1°F1.7°C 59% 2.0 mph E3.2 kmh E 2.0 mph3.2 kmh -338605.1 mb 0.00 in0.0 mm 0.00 in/hr0.0 mm/hr 0.00 in0.0 mm
06:52 AM 48.7°F9.3°C 35.1°F1.7°C 59% 2.9 mph NE4.7 kmh NE 0.9 mph1.4 kmh -338605.1 mb 0.00 in0.0 mm 0.00 in/hr0.0 mm/hr 0.00 in0.0 mm
06:57 AM 48.7°F9.3°C 35.1°F1.7°C 59% 2.0 mph NE3.2 kmh NE -- -338605.1 mb 0.00 in0.0 mm 0.00 in/hr0.0 mm/hr 0.00 in0.0 mm
07:02 AM 48.9°F9.4°C 35.2°F1.8°C 59% 0.9 mph NE1.4 kmh NE 2.9 mph4.7 kmh -338605.1 mb 0.00 in0.0 mm 0.00 in/hr0.0 mm/hr 0.00 in0.0 mm
07:07 AM 49.1°F9.5°C 35.4°F1.9°C 59% 0.9 mph NE1.4 kmh NE 2.9 mph4.7 kmh -338605.1 mb 0.00 in0.0 mm 0.00 in/hr0.0 mm/hr 0.00 in0.0 mm
07:12 AM 49.5°F9.7°C 35.2°F1.8°C 58% 0.9 mph NE1.4 kmh NE -- -338605.1 mb 0.00 in0.0 mm 0.00 in/hr0.0 mm/hr 0.00 in0.0 mm
07:17 AM 49.5°F9.7°C 35.2°F1.8°C 58% 0.9 mph NE1.4 kmh NE 0.9 mph1.4 kmh -338605.1 mb 0.00 in0.0 mm 0.00 in/hr0.0 mm/hr 0.00 in0.0 mm
07:22 AM 49.5°F9.7°C 35.2°F1.8°C 58% 0.9 mph NE1.4 kmh NE -- -338605.1 mb 0.00 in0.0 mm 0.00 in/hr0.0 mm/hr 0.00 in0.0 mm
07:27 AM 49.5°F9.7°C 35.2°F1.8°C 58% Calm Calm 0.9 mph1.4 kmh -338605.1 mb 0.00 in0.0 mm 0.00 in/hr0.0 mm/hr 0.00 in0.0 mm
07:32 AM 49.6°F9.8°C 35.4°F1.9°C 58% Calm Calm -- -338605.1 mb 0.00 in0.0 mm 0.00 in/hr0.0 mm/hr 0.00 in0.0 mm
07:37 AM 49.8°F9.9°C 36.1°F2.3°C 59% 0.9 mph ESE1.4 kmh ESE 2.9 mph4.7 kmh -338605.1 mb 0.00 in0.0 mm 0.00 in/hr0.0 mm/hr 0.00 in0.0 mm
07:42 AM 50.0°F10.0°C 35.8°F2.1°C 58% 2.0 mph SE3.2 kmh SE 4.0 mph6.4 kmh -338605.1 mb 0.00 in0.0 mm 0.00 in/hr0.0 mm/hr 0.00 in0.0 mm
07:47 AM 50.4°F10.2°C 36.1°F2.3°C 58% 4.0 mph S6.4 kmh S 4.0 mph6.4 kmh -338605.1 mb 0.00 in0.0 mm 0.00 in/hr0.0 mm/hr 0.00 in0.0 mm
07:52 AM 50.4°F10.2°C 36.1°F2.3°C 58% 2.9 mph S4.7 kmh S 2.0 mph3.2 kmh -338605.1 mb 0.00 in0.0 mm 0.00 in/hr0.0 mm/hr 0.00 in0.0 mm
07:57 AM 50.7°F10.4°C 36.0°F2.2°C 57% 2.0 mph S3.2 kmh S -- -338605.1 mb 0.00 in0.0 mm 0.00 in/hr0.0 mm/hr 0.00 in0.0 mm
08:02 AM 51.1°F10.6°C 36.3°F2.4°C 57% 0.9 mph S1.4 kmh S -- -338605.1 mb 0.00 in0.0 mm 0.00 in/hr0.0 mm/hr 0.00 in0.0 mm
08:07 AM 50.9°F10.5°C 36.1°F2.3°C 57% 0.9 mph S1.4 kmh S -- -338605.1 mb 0.00 in0.0 mm 0.00 in/hr0.0 mm/hr 0.00 in0.0 mm
08:12 AM 50.9°F10.5°C 36.1°F2.3°C 57% 0.9 mph S1.4 kmh S -- -338605.1 mb 0.00 in0.0 mm 0.00 in/hr0.0 mm/hr 0.00 in0.0 mm
08:17 AM 50.9°F10.5°C 36.1°F2.3°C 57% Calm Calm -- -338605.1 mb 0.00 in0.0 mm 0.00 in/hr0.0 mm/hr 0.00 in0.0 mm
08:22 AM 51.3°F10.7°C 37.0°F2.8°C 58% Calm Calm -- -338605.1 mb 0.00 in0.0 mm 0.00 in/hr0.0 mm/hr 0.00 in0.0 mm
08:27 AM 51.4°F10.8°C 36.3°F2.4°C 56% Calm Calm -- -338605.1 mb 0.00 in0.0 mm 0.00 in/hr0.0 mm/hr 0.00 in0.0 mm
08:32 AM 52.0°F11.1°C 36.9°F2.7°C 56% Calm Calm 2.0 mph3.2 kmh -338605.1 mb 0.00 in0.0 mm 0.00 in/hr0.0 mm/hr 0.00 in0.0 mm
08:37 AM 52.2°F11.2°C 36.9°F2.7°C 56% Calm Calm 0.9 mph1.4 kmh -338605.1 mb 0.00 in0.0 mm 0.00 in/hr0.0 mm/hr 0.00 in0.0 mm
08:42 AM 52.9°F11.6°C 38.5°F3.6°C 58% 0.9 mph S1.4 kmh S 2.0 mph3.2 kmh -338605.1 mb 0.00 in0.0 mm 0.00 in/hr0.0 mm/hr 0.00 in0.0 mm
08:47 AM 54.0°F12.2°C 38.1°F3.4°C 55% 2.0 mph S3.2 kmh S -- -338605.1 mb 0.00 in0.0 mm 0.00 in/hr0.0 mm/hr 0.00 in0.0 mm
08:52 AM 54.1°F12.3°C 37.9°F3.3°C 54% 0.9 mph S1.4 kmh S 2.0 mph3.2 kmh -338605.1 mb 0.00 in0.0 mm 0.00 in/hr0.0 mm/hr 0.00 in0.0 mm
08:57 AM 54.0°F12.2°C 37.2°F2.9°C 53% 0.9 mph S1.4 kmh S 2.0 mph3.2 kmh -338605.1 mb 0.00 in0.0 mm 0.00 in/hr0.0 mm/hr 0.00 in0.0 mm
09:02 AM 54.0°F12.2°C 37.2°F2.9°C 53% 2.0 mph SW3.2 kmh SW 4.0 mph6.4 kmh -338605.1 mb 0.00 in0.0 mm 0.00 in/hr0.0 mm/hr 0.00 in0.0 mm
09:07 AM 54.1°F12.3°C 37.4°F3.0°C 53% 2.0 mph SW3.2 kmh SW -- -338605.1 mb 0.00 in0.0 mm 0.00 in/hr0.0 mm/hr 0.00 in0.0 mm
09:12 AM 54.5°F12.5°C 37.2°F2.9°C 52% 0.9 mph SW1.4 kmh SW 0.9 mph1.4 kmh -338605.1 mb 0.00 in0.0 mm 0.00 in/hr0.0 mm/hr 0.00 in0.0 mm
09:17 AM 54.9°F12.7°C 37.6°F3.1°C 52% 0.9 mph SW1.4 kmh SW -- -338605.1 mb 0.00 in0.0 mm 0.00 in/hr0.0 mm/hr 0.00 in0.0 mm
09:22 AM 55.6°F13.1°C 37.8°F3.2°C 51% Calm Calm -- -338605.1 mb 0.00 in0.0 mm 0.00 in/hr0.0 mm/hr 0.00 in0.0 mm
09:27 AM 56.1°F13.4°C 37.2°F2.9°C 49% Calm Calm -- -338605.1 mb 0.00 in0.0 mm 0.00 in/hr0.0 mm/hr 0.00 in0.0 mm
09:32 AM 56.7°F13.7°C 37.2°F2.9°C 48% Calm Calm -- -338605.1 mb 0.00 in0.0 mm 0.00 in/hr0.0 mm/hr 0.00 in0.0 mm
09:37 AM 57.4°F14.1°C 37.4°F3.0°C 47% Calm Calm -- -338605.1 mb 0.00 in0.0 mm 0.00 in/hr0.0 mm/hr 0.00 in0.0 mm
09:42 AM 57.9°F14.4°C 37.2°F2.9°C 46% Calm Calm -- -338605.1 mb 0.00 in0.0 mm 0.00 in/hr0.0 mm/hr 0.00 in0.0 mm
09:47 AM 58.3°F14.6°C 37.6°F3.1°C 46% Calm Calm 0.9 mph1.4 kmh -338605.1 mb 0.00 in0.0 mm 0.00 in/hr0.0 mm/hr 0.00 in0.0 mm
09:52 AM 58.6°F14.8°C 37.4°F3.0°C 45% Calm Calm -- -338605.1 mb 0.00 in0.0 mm 0.00 in/hr0.0 mm/hr 0.00 in0.0 mm
09:57 AM 58.8°F14.9°C 37.0°F2.8°C 44% Calm Calm -- -338605.1 mb 0.00 in0.0 mm 0.00 in/hr0.0 mm/hr 0.00 in0.0 mm
10:02 AM 59.5°F15.3°C 37.0°F2.8°C 43% Calm Calm -- -338605.1 mb 0.00 in0.0 mm 0.00 in/hr0.0 mm/hr 0.00 in0.0 mm
10:07 AM 60.4°F15.8°C 37.2°F2.9°C 42% Calm Calm -- -338605.1 mb 0.00 in0.0 mm 0.00 in/hr0.0 mm/hr 0.00 in0.0 mm
10:12 AM 61.0°F16.1°C 37.8°F3.2°C 42% Calm Calm -- -338605.1 mb 0.00 in0.0 mm 0.00 in/hr0.0 mm/hr 0.00 in0.0 mm
10:17 AM 61.2°F16.2°C 38.5°F3.6°C 43% Calm Calm 0.9 mph1.4 kmh -338605.1 mb 0.00 in0.0 mm 0.00 in/hr0.0 mm/hr 0.00 in0.0 mm
10:22 AM 61.2°F16.2°C 38.5°F3.6°C 43% 0.9 mph SW1.4 kmh SW 2.0 mph3.2 kmh -338605.1 mb 0.00 in0.0 mm 0.00 in/hr0.0 mm/hr 0.00 in0.0 mm
10:27 AM 60.6°F15.9°C 38.7°F3.7°C 44% 0.9 mph SW1.4 kmh SW 2.0 mph3.2 kmh -338605.1 mb 0.00 in0.0 mm 0.00 in/hr0.0 mm/hr 0.00 in0.0 mm
10:32 AM 60.4°F15.8°C 39.0°F3.9°C 45% 2.0 mph SW3.2 kmh SW 2.9 mph4.7 kmh -338605.1 mb 0.00 in0.0 mm 0.00 in/hr0.0 mm/hr 0.00 in0.0 mm
10:37 AM 60.4°F15.8°C 38.5°F3.6°C 44% 2.0 mph SW3.2 kmh SW 2.0 mph3.2 kmh -338605.1 mb 0.00 in0.0 mm 0.00 in/hr0.0 mm/hr 0.00 in0.0 mm
10:42 AM 60.6°F15.9°C 38.7°F3.7°C 44% 2.0 mph SW3.2 kmh SW 0.9 mph1.4 kmh -338605.1 mb 0.00 in0.0 mm 0.00 in/hr0.0 mm/hr 0.00 in0.0 mm
10:47 AM 60.8°F16.0°C 38.7°F3.7°C 44% 2.0 mph SE3.2 kmh SE 2.9 mph4.7 kmh -338605.1 mb 0.00 in0.0 mm 0.00 in/hr0.0 mm/hr 0.00 in0.0 mm
10:52 AM 61.2°F16.2°C 39.0°F3.9°C 44% 2.0 mph SE3.2 kmh SE 0.9 mph1.4 kmh -338605.1 mb 0.00 in0.0 mm 0.00 in/hr0.0 mm/hr 0.00 in0.0 mm
10:57 AM 61.3°F16.3°C 38.7°F3.7°C 43% 0.9 mph SE1.4 kmh SE 0.9 mph1.4 kmh -338605.1 mb 0.00 in0.0 mm 0.00 in/hr0.0 mm/hr 0.00 in0.0 mm
11:02 AM 61.3°F16.3°C 38.1°F3.4°C 42% 0.9 mph SE1.4 kmh SE 0.9 mph1.4 kmh -338605.1 mb 0.00 in0.0 mm 0.00 in/hr0.0 mm/hr 0.00 in0.0 mm
11:07 AM 61.5°F16.4°C 38.8°F3.8°C 43% 0.9 mph SE1.4 kmh SE -- -338605.1 mb 0.00 in0.0 mm 0.00 in/hr0.0 mm/hr 0.00 in0.0 mm
11:12 AM 61.5°F16.4°C 38.8°F3.8°C 43% 0.9 mph NE1.4 kmh NE -- -338605.1 mb 0.00 in0.0 mm 0.00 in/hr0.0 mm/hr 0.00 in0.0 mm
11:17 AM 61.5°F16.4°C 38.8°F3.8°C 43% Calm Calm -- -338605.1 mb 0.00 in0.0 mm 0.00 in/hr0.0 mm/hr 0.00 in0.0 mm
11:22 AM 61.7°F16.5°C 39.0°F3.9°C 43% Calm Calm 0.9 mph1.4 kmh -338605.1 mb 0.00 in0.0 mm 0.00 in/hr0.0 mm/hr 0.00 in0.0 mm
11:27 AM 61.9°F16.6°C 39.2°F4.0°C 43% Calm Calm -- -338605.1 mb 0.00 in0.0 mm 0.00 in/hr0.0 mm/hr 0.00 in0.0 mm
11:32 AM 61.9°F16.6°C 39.2°F4.0°C 43% 0.9 mph E1.4 kmh E 0.9 mph1.4 kmh -338605.1 mb 0.00 in0.0 mm 0.00 in/hr0.0 mm/hr 0.00 in0.0 mm
11:37 AM 61.9°F16.6°C 39.2°F4.0°C 43% 0.9 mph E1.4 kmh E -- -338605.1 mb 0.00 in0.0 mm 0.00 in/hr0.0 mm/hr 0.00 in0.0 mm
11:42 AM 61.9°F16.6°C 39.7°F4.3°C 44% Calm Calm 0.9 mph1.4 kmh -338605.1 mb 0.00 in0.0 mm 0.00 in/hr0.0 mm/hr 0.00 in0.0 mm
11:47 AM 62.2°F16.8°C 39.4°F4.1°C 43% 0.9 mph E1.4 kmh E 0.9 mph1.4 kmh -338605.1 mb 0.00 in0.0 mm 0.00 in/hr0.0 mm/hr 0.00 in0.0 mm
11:52 AM 62.2°F16.8°C 39.4°F4.1°C 43% 0.9 mph E1.4 kmh E 2.9 mph4.7 kmh -338605.1 mb 0.00 in0.0 mm 0.00 in/hr0.0 mm/hr 0.00 in0.0 mm
11:57 AM 62.2°F16.8°C 43.3°F6.3°C 50% 2.0 mph SSE3.2 kmh SSE 4.9 mph7.9 kmh -338605.1 mb 0.00 in0.0 mm 0.00 in/hr0.0 mm/hr 0.00 in0.0 mm
12:02 PM 61.9°F16.6°C 41.9°F5.5°C 48% 2.9 mph S4.7 kmh S 2.0 mph3.2 kmh -338605.1 mb 0.00 in0.0 mm 0.00 in/hr0.0 mm/hr 0.00 in0.0 mm
12:07 PM 61.7°F16.5°C 42.8°F6.0°C 50% 2.9 mph N4.7 kmh N 4.9 mph7.9 kmh -338605.1 mb 0.00 in0.0 mm 0.00 in/hr0.0 mm/hr 0.00 in0.0 mm
12:12 PM 61.5°F16.4°C 42.3°F5.7°C 49% 4.0 mph NNW6.4 kmh NNW 6.0 mph9.7 kmh -338605.1 mb 0.00 in0.0 mm 0.00 in/hr0.0 mm/hr 0.00 in0.0 mm
12:17 PM 61.2°F16.2°C 42.4°F5.8°C 50% 4.9 mph N7.9 kmh N 2.9 mph4.7 kmh -338605.1 mb 0.00 in0.0 mm 0.00 in/hr0.0 mm/hr 0.00 in0.0 mm
12:22 PM 61.0°F16.1°C 41.2°F5.1°C 48% 4.0 mph N6.4 kmh N 0.9 mph1.4 kmh -338605.1 mb 0.00 in0.0 mm 0.00 in/hr0.0 mm/hr 0.00 in0.0 mm
12:27 PM 61.2°F16.2°C 41.4°F5.2°C 48% 2.0 mph N3.2 kmh N -- -338605.1 mb 0.00 in0.0 mm 0.00 in/hr0.0 mm/hr 0.00 in0.0 mm
12:32 PM 61.3°F16.3°C 43.5°F6.4°C 52% 0.9 mph S1.4 kmh S 0.9 mph1.4 kmh -338605.1 mb 0.00 in0.0 mm 0.00 in/hr0.0 mm/hr 0.00 in0.0 mm
12:37 PM 61.3°F16.3°C 43.5°F6.4°C 52% 2.0 mph NE3.2 kmh NE 8.1 mph13.0 kmh -338605.1 mb 0.00 in0.0 mm 0.00 in/hr0.0 mm/hr 0.00 in0.0 mm
12:42 PM 61.2°F16.2°C 40.8°F4.9°C 47% 4.9 mph E7.9 kmh E 6.0 mph9.7 kmh -338605.1 mb 0.00 in0.0 mm 0.00 in/hr0.0 mm/hr 0.00 in0.0 mm
12:47 PM 61.2°F16.2°C 43.9°F6.6°C 53% 6.0 mph SSE9.7 kmh SSE 2.9 mph4.7 kmh -338605.1 mb 0.00 in0.0 mm 0.00 in/hr0.0 mm/hr 0.00 in0.0 mm
12:52 PM 61.2°F16.2°C 45.3°F7.4°C 56% 2.9 mph SSE4.7 kmh SSE -- -338605.1 mb 0.00 in0.0 mm 0.00 in/hr0.0 mm/hr 0.00 in0.0 mm
12:57 PM 61.2°F16.2°C 45.3°F7.4°C 56% 0.9 mph SSE1.4 kmh SSE 2.0 mph3.2 kmh -338605.1 mb 0.00 in0.0 mm 0.00 in/hr0.0 mm/hr 0.00 in0.0 mm
01:02 PM 61.0°F16.1°C 46.6°F8.1°C 59% 2.0 mph SE3.2 kmh SE 2.0 mph3.2 kmh -338605.1 mb 0.00 in0.0 mm 0.00 in/hr0.0 mm/hr 0.00 in0.0 mm
01:07 PM 60.8°F16.0°C 45.0°F7.2°C 56% 4.9 mph SSE7.9 kmh SSE 2.9 mph4.7 kmh -338605.1 mb 0.00 in0.0 mm 0.00 in/hr0.0 mm/hr 0.00 in0.0 mm
01:12 PM 60.3°F15.7°C 44.4°F6.9°C 56% 6.0 mph SSE9.7 kmh SSE 4.9 mph7.9 kmh -338605.1 mb 0.00 in0.0 mm 0.00 in/hr0.0 mm/hr 0.00 in0.0 mm
01:17 PM 59.7°F15.4°C 45.0°F7.2°C 58% 6.0 mph SSE9.7 kmh SSE 6.0 mph9.7 kmh -338605.1 mb 0.00 in0.0 mm 0.00 in/hr0.0 mm/hr 0.00 in0.0 mm
01:22 PM 59.2°F15.1°C 44.4°F6.9°C 58% 6.9 mph SSE11.1 kmh SSE 6.9 mph11.1 kmh -338605.1 mb 0.00 in0.0 mm 0.00 in/hr0.0 mm/hr 0.00 in0.0 mm
01:27 PM 59.0°F15.0°C 44.8°F7.1°C 59% 6.9 mph SSE11.1 kmh SSE 4.9 mph7.9 kmh -338605.1 mb 0.00 in0.0 mm 0.00 in/hr0.0 mm/hr 0.00 in0.0 mm
01:32 PM 58.8°F14.9°C 45.9°F7.7°C 62% 6.0 mph SSW9.7 kmh SSW 2.9 mph4.7 kmh -338605.1 mb 0.00 in0.0 mm 0.00 in/hr0.0 mm/hr 0.00 in0.0 mm
01:37 PM 58.6°F14.8°C 46.6°F8.1°C 64% 4.9 mph SW7.9 kmh SW 4.9 mph7.9 kmh -338605.1 mb 0.00 in0.0 mm 0.00 in/hr0.0 mm/hr 0.00 in0.0 mm
01:42 PM 58.3°F14.6°C 46.9°F8.3°C 66% 4.9 mph SW7.9 kmh SW 6.0 mph9.7 kmh -338605.1 mb 0.00 in0.0 mm 0.00 in/hr0.0 mm/hr 0.01 in0.3 mm
01:47 PM 57.4°F14.1°C 45.3°F7.4°C 64% 4.0 mph SW6.4 kmh SW 2.9 mph4.7 kmh -338605.1 mb 0.07 in1.8 mm 0.84 in/hr21.3 mm/hr 0.02 in0.5 mm
01:52 PM 57.4°F14.1°C 45.7°F7.6°C 65% 2.9 mph S4.7 kmh S 0.9 mph1.4 kmh -338605.1 mb 0.07 in1.8 mm 0.00 in/hr0.0 mm/hr 0.02 in0.5 mm
01:57 PM 57.4°F14.1°C 45.7°F7.6°C 65% 2.9 mph S4.7 kmh S 4.0 mph6.4 kmh -338605.1 mb 0.05 in1.3 mm 0.00 in/hr0.0 mm/hr 0.02 in0.5 mm
02:02 PM 57.6°F14.2°C 45.9°F7.7°C 65% 2.9 mph SSE4.7 kmh SSE 2.0 mph3.2 kmh -338605.1 mb 0.04 in1.0 mm 0.00 in/hr0.0 mm/hr 0.03 in0.8 mm
02:07 PM 57.4°F14.1°C 46.6°F8.1°C 67% 2.0 mph SSE3.2 kmh SSE 2.0 mph3.2 kmh -338605.1 mb 0.13 in3.3 mm 1.08 in/hr27.4 mm/hr 0.03 in0.8 mm
02:12 PM 57.0°F13.9°C 46.6°F8.1°C 68% 0.9 mph SSE1.4 kmh SSE 2.9 mph4.7 kmh -338605.1 mb 0.11 in2.8 mm 0.00 in/hr0.0 mm/hr 0.04 in1.0 mm
02:17 PM 57.0°F13.9°C 47.3°F8.5°C 70% 0.9 mph SE1.4 kmh SE -- -338605.1 mb 0.13 in3.3 mm 0.24 in/hr6.1 mm/hr 0.05 in1.3 mm
02:22 PM 56.3°F13.5°C 47.5°F8.6°C 72% 0.9 mph S1.4 kmh S 0.9 mph1.4 kmh -338605.1 mb 0.08 in2.0 mm 0.00 in/hr0.0 mm/hr 0.06 in1.5 mm
02:27 PM 55.9°F13.3°C 47.1°F8.4°C 72% 0.9 mph S1.4 kmh S -- -338605.1 mb 0.15 in3.8 mm 0.84 in/hr21.3 mm/hr 0.08 in2.0 mm
02:32 PM 55.9°F13.3°C 47.1°F8.4°C 72% 0.9 mph S1.4 kmh S 0.9 mph1.4 kmh -338605.1 mb 0.16 in4.1 mm 0.12 in/hr3.0 mm/hr 0.09 in2.3 mm
02:37 PM 55.6°F13.1°C 47.8°F8.8°C 75% 0.9 mph NW1.4 kmh NW 2.9 mph4.7 kmh -338605.1 mb 0.10 in2.5 mm 0.00 in/hr0.0 mm/hr 0.10 in2.5 mm
02:42 PM 55.4°F13.0°C 48.4°F9.1°C 77% 2.0 mph NW3.2 kmh NW 2.9 mph4.7 kmh -338605.1 mb 0.07 in1.8 mm 0.00 in/hr0.0 mm/hr 0.10 in2.5 mm
02:47 PM 55.0°F12.8°C 48.0°F8.9°C 77% 2.9 mph NW4.7 kmh NW 2.9 mph4.7 kmh -338605.1 mb 0.07 in1.8 mm 0.00 in/hr0.0 mm/hr 0.11 in2.8 mm
02:52 PM 54.7°F12.6°C 48.4°F9.1°C 79% 2.9 mph NNW4.7 kmh NNW 2.9 mph4.7 kmh -338605.1 mb 0.08 in2.0 mm 0.12 in/hr3.0 mm/hr 0.12 in3.0 mm
02:57 PM 54.3°F12.4°C 48.2°F9.0°C 80% 2.9 mph NNW4.7 kmh NNW 2.9 mph4.7 kmh -338605.1 mb 0.06 in1.5 mm 0.00 in/hr0.0 mm/hr 0.12 in3.0 mm
03:02 PM 54.1°F12.3°C 48.4°F9.1°C 81% 4.0 mph NNW6.4 kmh NNW 2.9 mph4.7 kmh -338605.1 mb 0.04 in1.0 mm 0.00 in/hr0.0 mm/hr 0.12 in3.0 mm
03:07 PM 54.0°F12.2°C 48.6°F9.2°C 82% 2.9 mph NNW4.7 kmh NNW 2.0 mph3.2 kmh -338605.1 mb 0.04 in1.0 mm 0.00 in/hr0.0 mm/hr 0.12 in3.0 mm
03:12 PM 53.8°F12.1°C 48.7°F9.3°C 83% 2.0 mph NNW3.2 kmh NNW 2.0 mph3.2 kmh -338605.1 mb 0.04 in1.0 mm 0.00 in/hr0.0 mm/hr 0.13 in3.3 mm
03:17 PM 54.0°F12.2°C 49.3°F9.6°C 84% 2.0 mph NNW3.2 kmh NNW 2.0 mph3.2 kmh -338605.1 mb 0.04 in1.0 mm 0.00 in/hr0.0 mm/hr 0.13 in3.3 mm
03:22 PM 53.8°F12.1°C 49.1°F9.5°C 84% 2.0 mph NNW3.2 kmh NNW 2.9 mph4.7 kmh -338605.1 mb 0.00 in0.0 mm 0.00 in/hr0.0 mm/hr 0.13 in3.3 mm
03:27 PM 53.6°F12.0°C 48.9°F9.4°C 84% 2.9 mph NW4.7 kmh NW 4.9 mph7.9 kmh -338605.1 mb 0.00 in0.0 mm 0.00 in/hr0.0 mm/hr 0.13 in3.3 mm
03:32 PM 53.4°F11.9°C 48.7°F9.3°C 84% 4.0 mph NNW6.4 kmh NNW 4.0 mph6.4 kmh -338605.1 mb 0.00 in0.0 mm 0.00 in/hr0.0 mm/hr 0.14 in3.6 mm
03:37 PM 53.2°F11.8°C 48.2°F9.0°C 83% 4.0 mph NW6.4 kmh NW 4.0 mph6.4 kmh -338605.1 mb 0.00 in0.0 mm 0.00 in/hr0.0 mm/hr 0.14 in3.6 mm
03:42 PM 53.2°F11.8°C 48.6°F9.2°C 84% 2.9 mph WNW4.7 kmh WNW 4.0 mph6.4 kmh -338605.1 mb 0.04 in1.0 mm 0.48 in/hr12.2 mm/hr 0.14 in3.6 mm
03:47 PM 53.4°F11.9°C 48.7°F9.3°C 84% 2.9 mph WNW4.7 kmh WNW 2.9 mph4.7 kmh -338605.1 mb 0.04 in1.0 mm 0.00 in/hr0.0 mm/hr 0.15 in3.8 mm
03:52 PM 53.6°F12.0°C 48.6°F9.2°C 83% 2.9 mph WNW4.7 kmh WNW 2.0 mph3.2 kmh -338605.1 mb 0.07 in1.8 mm 0.36 in/hr9.1 mm/hr 0.16 in4.1 mm
03:57 PM 53.4°F11.9°C 48.7°F9.3°C 84% 2.9 mph NW4.7 kmh NW 2.9 mph4.7 kmh -338605.1 mb 0.08 in2.0 mm 0.12 in/hr3.0 mm/hr 0.16 in4.1 mm
04:02 PM 53.4°F11.9°C 48.7°F9.3°C 84% 2.9 mph NW4.7 kmh NW 2.0 mph3.2 kmh -338605.1 mb 0.08 in2.0 mm 0.00 in/hr0.0 mm/hr 0.17 in4.3 mm
04:07 PM 53.2°F11.8°C 48.9°F9.4°C 85% 2.0 mph NW3.2 kmh NW 2.9 mph4.7 kmh -338605.1 mb 0.06 in1.5 mm 0.00 in/hr0.0 mm/hr 0.17 in4.3 mm
04:12 PM 53.2°F11.8°C 48.9°F9.4°C 85% 2.9 mph NW4.7 kmh NW 6.9 mph11.1 kmh -338605.1 mb 0.06 in1.5 mm 0.00 in/hr0.0 mm/hr 0.18 in4.6 mm
04:17 PM 52.7°F11.5°C 48.4°F9.1°C 85% 6.0 mph NW9.7 kmh NW 6.9 mph11.1 kmh -338605.1 mb 0.06 in1.5 mm 0.00 in/hr0.0 mm/hr 0.18 in4.6 mm
04:22 PM 52.3°F11.3°C 48.0°F8.9°C 85% 6.9 mph NW11.1 kmh NW 8.9 mph14.3 kmh -338605.1 mb 0.04 in1.0 mm 0.00 in/hr0.0 mm/hr 0.18 in4.6 mm
04:27 PM 52.2°F11.2°C 48.0°F8.9°C 86% 8.1 mph NW13.0 kmh NW 8.1 mph13.0 kmh -338605.1 mb 0.04 in1.0 mm 0.00 in/hr0.0 mm/hr 0.19 in4.8 mm
04:32 PM 52.0°F11.1°C 48.2°F9.0°C 87% 8.1 mph NW13.0 kmh NW 6.0 mph9.7 kmh -338605.1 mb 0.04 in1.0 mm 0.00 in/hr0.0 mm/hr 0.19 in4.8 mm
04:37 PM 52.0°F11.1°C 48.2°F9.0°C 87% 6.9 mph NNW11.1 kmh NNW 4.9 mph7.9 kmh -338605.1 mb 0.04 in1.0 mm 0.00 in/hr0.0 mm/hr 0.19 in4.8 mm
04:42 PM 52.0°F11.1°C 48.2°F9.0°C 87% 6.0 mph NNW9.7 kmh NNW 4.9 mph7.9 kmh -338605.1 mb 0.00 in0.0 mm 0.00 in/hr0.0 mm/hr 0.19 in4.8 mm
04:47 PM 52.0°F11.1°C 48.6°F9.2°C 88% 4.9 mph NNW7.9 kmh NNW 6.0 mph9.7 kmh -338605.1 mb 0.00 in0.0 mm 0.00 in/hr0.0 mm/hr 0.20 in5.1 mm
04:52 PM 52.0°F11.1°C 48.6°F9.2°C 88% 4.9 mph NNW7.9 kmh NNW 2.9 mph4.7 kmh -338605.1 mb 0.00 in0.0 mm 0.00 in/hr0.0 mm/hr 0.20 in5.1 mm
04:57 PM 52.0°F11.1°C 48.6°F9.2°C 88% 4.9 mph NW7.9 kmh NW 4.0 mph6.4 kmh -338605.1 mb 0.04 in1.0 mm 0.48 in/hr12.2 mm/hr 0.20 in5.1 mm
05:02 PM 51.8°F11.0°C 48.4°F9.1°C 88% 4.9 mph NNW7.9 kmh NNW 4.0 mph6.4 kmh -338605.1 mb 0.04 in1.0 mm 0.00 in/hr0.0 mm/hr 0.21 in5.3 mm
05:07 PM 51.8°F11.0°C 48.4°F9.1°C 88% 4.0 mph NNW6.4 kmh NNW -- -338605.1 mb 0.04 in1.0 mm 0.00 in/hr0.0 mm/hr 0.21 in5.3 mm
05:12 PM 51.8°F11.0°C 48.4°F9.1°C 88% 2.0 mph NNW3.2 kmh NNW 2.0 mph3.2 kmh -338605.1 mb 0.04 in1.0 mm 0.00 in/hr0.0 mm/hr 0.21 in5.3 mm
05:17 PM 52.0°F11.1°C 48.6°F9.2°C 88% 0.9 mph NNW1.4 kmh NNW -- -338605.1 mb 0.00 in0.0 mm 0.00 in/hr0.0 mm/hr 0.21 in5.3 mm
05:22 PM 52.2°F11.2°C 48.7°F9.3°C 88% 0.9 mph NNW1.4 kmh NNW 2.0 mph3.2 kmh -338605.1 mb 0.00 in0.0 mm 0.00 in/hr0.0 mm/hr 0.21 in5.3 mm
05:27 PM 52.2°F11.2°C 48.7°F9.3°C 88% 0.9 mph NNW1.4 kmh NNW 2.9 mph4.7 kmh -338605.1 mb 0.00 in0.0 mm 0.00 in/hr0.0 mm/hr 0.21 in5.3 mm
05:32 PM 52.0°F11.1°C 48.6°F9.2°C 88% 2.9 mph NNW4.7 kmh NNW 0.9 mph1.4 kmh -338605.1 mb 0.00 in0.0 mm 0.00 in/hr0.0 mm/hr 0.21 in5.3 mm
05:37 PM 52.2°F11.2°C 48.7°F9.3°C 88% 2.0 mph NNW3.2 kmh NNW -- -338605.1 mb 0.00 in0.0 mm 0.00 in/hr0.0 mm/hr 0.21 in5.3 mm
05:42 PM 52.2°F11.2°C 48.7°F9.3°C 88% Calm Calm -- -338605.1 mb 0.00 in0.0 mm 0.00 in/hr0.0 mm/hr 0.21 in5.3 mm
05:47 PM 52.3°F11.3°C 48.9°F9.4°C 88% Calm Calm -- -338605.1 mb 0.00 in0.0 mm 0.00 in/hr0.0 mm/hr 0.21 in5.3 mm
05:52 PM 52.5°F11.4°C 48.7°F9.3°C 87% Calm Calm -- -338605.1 mb 0.00 in0.0 mm 0.00 in/hr0.0 mm/hr 0.21 in5.3 mm
05:57 PM 52.5°F11.4°C 48.7°F9.3°C 87% Calm Calm 0.9 mph1.4 kmh -338605.1 mb 0.00 in0.0 mm 0.00 in/hr0.0 mm/hr 0.21 in5.3 mm
06:02 PM 52.9°F11.6°C 49.1°F9.5°C 87% 0.9 mph NNW1.4 kmh NNW 2.0 mph3.2 kmh -338605.1 mb 0.00 in0.0 mm 0.00 in/hr0.0 mm/hr 0.21 in5.3 mm
06:07 PM 53.2°F11.8°C 49.1°F9.5°C 86% 2.0 mph NW3.2 kmh NW 2.0 mph3.2 kmh -338605.1 mb 0.00 in0.0 mm 0.00 in/hr0.0 mm/hr 0.21 in5.3 mm
06:12 PM 53.4°F11.9°C 49.3°F9.6°C 86% 2.0 mph SSE3.2 kmh SSE 0.9 mph1.4 kmh -338605.1 mb 0.00 in0.0 mm 0.00 in/hr0.0 mm/hr 0.21 in5.3 mm
06:17 PM 53.4°F11.9°C 49.1°F9.5°C 85% 2.9 mph SE4.7 kmh SE 4.0 mph6.4 kmh -338605.1 mb 0.00 in0.0 mm 0.00 in/hr0.0 mm/hr 0.21 in5.3 mm
06:22 PM 53.4°F11.9°C 49.1°F9.5°C 85% 2.9 mph SE4.7 kmh SE 4.0 mph6.4 kmh -338605.1 mb 0.00 in0.0 mm 0.00 in/hr0.0 mm/hr 0.21 in5.3 mm
06:27 PM 53.4°F11.9°C 49.1°F9.5°C 85% 2.9 mph SE4.7 kmh SE 4.0 mph6.4 kmh -338605.1 mb 0.00 in0.0 mm 0.00 in/hr0.0 mm/hr 0.21 in5.3 mm
06:32 PM 53.4°F11.9°C 49.1°F9.5°C 85% 2.9 mph SE4.7 kmh SE 4.0 mph6.4 kmh -338605.1 mb 0.00 in0.0 mm 0.00 in/hr0.0 mm/hr 0.21 in5.3 mm
06:37 PM 53.6°F12.0°C 49.3°F9.6°C 85% 4.0 mph SE6.4 kmh SE 4.0 mph6.4 kmh -338605.1 mb 0.00 in0.0 mm 0.00 in/hr0.0 mm/hr 0.21 in5.3 mm
06:42 PM 53.8°F12.1°C 49.5°F9.7°C 85% 4.9 mph SE7.9 kmh SE 2.9 mph4.7 kmh -338605.1 mb 0.09 in2.3 mm 1.08 in/hr27.4 mm/hr 0.22 in5.6 mm
06:47 PM 53.8°F12.1°C 49.5°F9.7°C 85% 4.0 mph SE6.4 kmh SE 4.9 mph7.9 kmh -338605.1 mb 0.09 in2.3 mm 0.00 in/hr0.0 mm/hr 0.23 in5.8 mm
06:52 PM 54.0°F12.2°C 49.6°F9.8°C 85% 4.0 mph SSE6.4 kmh SSE 4.9 mph7.9 kmh -338605.1 mb 0.09 in2.3 mm 0.00 in/hr0.0 mm/hr 0.23 in5.8 mm
06:57 PM 54.0°F12.2°C 49.3°F9.6°C 84% 4.0 mph SE6.4 kmh SE 4.9 mph7.9 kmh -338605.1 mb 0.06 in1.5 mm 0.00 in/hr0.0 mm/hr 0.24 in6.1 mm
07:02 PM 54.1°F12.3°C 49.5°F9.7°C 84% 4.9 mph SE7.9 kmh SE 4.9 mph7.9 kmh -338605.1 mb 0.16 in4.1 mm 0.11 in/hr2.8 mm/hr 0.25 in6.4 mm
07:07 PM 54.1°F12.3°C 49.5°F9.7°C 84% 4.9 mph SE7.9 kmh SE 4.0 mph6.4 kmh -338605.1 mb 0.12 in3.0 mm 0.00 in/hr0.0 mm/hr 0.26 in6.6 mm
07:12 PM 54.1°F12.3°C 49.1°F9.5°C 83% 4.0 mph SE6.4 kmh SE 2.9 mph4.7 kmh -338605.1 mb 0.14 in3.6 mm 0.24 in/hr6.1 mm/hr 0.27 in6.9 mm
07:17 PM 54.0°F12.2°C 48.9°F9.4°C 83% 2.9 mph SE4.7 kmh SE 4.9 mph7.9 kmh -338605.1 mb 0.12 in3.0 mm 0.00 in/hr0.0 mm/hr 0.28 in7.1 mm
07:22 PM 54.0°F12.2°C 49.3°F9.6°C 84% 4.0 mph SE6.4 kmh SE 2.9 mph4.7 kmh -338605.1 mb 0.16 in4.1 mm 0.48 in/hr12.2 mm/hr 0.29 in7.4 mm
07:27 PM 54.0°F12.2°C 49.3°F9.6°C 84% 4.0 mph SE6.4 kmh SE 2.9 mph4.7 kmh -338605.1 mb 0.08 in2.0 mm 0.00 in/hr0.0 mm/hr 0.30 in7.6 mm
07:32 PM 54.1°F12.3°C 49.5°F9.7°C 84% 2.9 mph SE4.7 kmh SE 2.0 mph3.2 kmh -338605.1 mb 0.08 in2.0 mm 0.00 in/hr0.0 mm/hr 0.30 in7.6 mm
07:37 PM 54.1°F12.3°C 49.1°F9.5°C 83% 0.9 mph SE1.4 kmh SE -- -338605.1 mb 0.06 in1.5 mm 0.00 in/hr0.0 mm/hr 0.31 in7.9 mm
07:42 PM 54.1°F12.3°C 49.1°F9.5°C 83% Calm Calm -- -338605.1 mb 0.05 in1.3 mm 0.00 in/hr0.0 mm/hr 0.31 in7.9 mm
07:47 PM 54.0°F12.2°C 48.9°F9.4°C 83% Calm Calm -- -338605.1 mb 0.05 in1.3 mm 0.00 in/hr0.0 mm/hr 0.32 in8.1 mm
07:52 PM 53.8°F12.1°C 49.1°F9.5°C 84% Calm Calm 0.9 mph1.4 kmh -338605.1 mb 0.07 in1.8 mm 0.24 in/hr6.1 mm/hr 0.32 in8.1 mm
07:57 PM 53.4°F11.9°C 48.7°F9.3°C 84% 0.9 mph SE1.4 kmh SE -- -338605.1 mb 0.11 in2.8 mm 0.48 in/hr12.2 mm/hr 0.34 in8.6 mm
08:02 PM 53.4°F11.9°C 49.1°F9.5°C 85% 0.9 mph SE1.4 kmh SE 0.9 mph1.4 kmh -338605.1 mb 0.08 in2.0 mm 0.00 in/hr0.0 mm/hr 0.34 in8.6 mm
08:07 PM 53.6°F12.0°C 49.3°F9.6°C 85% 2.0 mph SE3.2 kmh SE 2.9 mph4.7 kmh -338605.1 mb 0.06 in1.5 mm 0.00 in/hr0.0 mm/hr 0.34 in8.6 mm
08:12 PM 53.6°F12.0°C 49.3°F9.6°C 85% 2.9 mph SE4.7 kmh SE 2.9 mph4.7 kmh -338605.1 mb 0.12 in3.0 mm 0.72 in/hr18.3 mm/hr 0.35 in8.9 mm
08:17 PM 53.4°F11.9°C 49.1°F9.5°C 85% 2.9 mph SSE4.7 kmh SSE 2.0 mph3.2 kmh -338605.1 mb 0.09 in2.3 mm 0.00 in/hr0.0 mm/hr 0.36 in9.1 mm
08:22 PM 53.2°F11.8°C 48.9°F9.4°C 85% 2.9 mph S4.7 kmh S 2.0 mph3.2 kmh -338605.1 mb 0.05 in1.3 mm 0.00 in/hr0.0 mm/hr 0.36 in9.1 mm
08:27 PM 53.1°F11.7°C 48.7°F9.3°C 85% 2.0 mph S3.2 kmh S 2.0 mph3.2 kmh -338605.1 mb 0.05 in1.3 mm 0.00 in/hr0.0 mm/hr 0.37 in9.4 mm
08:32 PM 52.7°F11.5°C 48.6°F9.2°C 86% 2.0 mph S3.2 kmh S 2.0 mph3.2 kmh -338605.1 mb 0.08 in2.0 mm 0.36 in/hr9.1 mm/hr 0.37 in9.4 mm
08:37 PM 52.5°F11.4°C 48.4°F9.1°C 86% 2.0 mph S3.2 kmh S 0.9 mph1.4 kmh -338605.1 mb 0.08 in2.0 mm 0.00 in/hr0.0 mm/hr 0.38 in9.7 mm
08:42 PM 52.7°F11.5°C 48.9°F9.4°C 87% 0.9 mph S1.4 kmh S -- -338605.1 mb 0.05 in1.3 mm 0.00 in/hr0.0 mm/hr 0.38 in9.7 mm
08:47 PM 52.5°F11.4°C 48.4°F9.1°C 86% Calm Calm -- -338605.1 mb 0.05 in1.3 mm 0.00 in/hr0.0 mm/hr 0.38 in9.7 mm
08:52 PM 52.7°F11.5°C 48.9°F9.4°C 87% Calm Calm -- -338605.1 mb 0.05 in1.3 mm 0.00 in/hr0.0 mm/hr 0.39 in9.9 mm
08:57 PM 52.5°F11.4°C 48.7°F9.3°C 87% Calm Calm 2.0 mph3.2 kmh -338605.1 mb 0.04 in1.0 mm 0.00 in/hr0.0 mm/hr 0.39 in9.9 mm
09:02 PM 52.7°F11.5°C 48.9°F9.4°C 87% 0.9 mph SE1.4 kmh SE 2.9 mph4.7 kmh -338605.1 mb 0.04 in1.0 mm 0.00 in/hr0.0 mm/hr 0.40 in10.2 mm
09:07 PM 52.5°F11.4°C 48.7°F9.3°C 87% 2.0 mph SE3.2 kmh SE 0.9 mph1.4 kmh -338605.1 mb 0.04 in1.0 mm 0.00 in/hr0.0 mm/hr 0.40 in10.2 mm
09:12 PM 52.5°F11.4°C 48.7°F9.3°C 87% 2.0 mph SE3.2 kmh SE -- -338605.1 mb 0.06 in1.5 mm 0.24 in/hr6.1 mm/hr 0.40 in10.2 mm
09:17 PM 52.5°F11.4°C 49.1°F9.5°C 88% Calm Calm 2.0 mph3.2 kmh -338605.1 mb 0.11 in2.8 mm 0.60 in/hr15.2 mm/hr 0.41 in10.4 mm
09:22 PM 52.3°F11.3°C 48.9°F9.4°C 88% 2.0 mph N3.2 kmh N 4.9 mph7.9 kmh -338605.1 mb 0.07 in1.8 mm 0.00 in/hr0.0 mm/hr 0.42 in10.7 mm
09:27 PM 52.2°F11.2°C 48.7°F9.3°C 88% 4.0 mph NNE6.4 kmh NNE 2.0 mph3.2 kmh -338605.1 mb 0.06 in1.5 mm 0.00 in/hr0.0 mm/hr 0.42 in10.7 mm
09:32 PM 52.2°F11.2°C 48.7°F9.3°C 88% 2.9 mph NNE4.7 kmh NNE -- -338605.1 mb 0.06 in1.5 mm 0.00 in/hr0.0 mm/hr 0.43 in10.9 mm
09:37 PM 52.2°F11.2°C 48.7°F9.3°C 88% 2.0 mph NNE3.2 kmh NNE 2.0 mph3.2 kmh -338605.1 mb 0.06 in1.5 mm 0.00 in/hr0.0 mm/hr 0.44 in11.2 mm
09:42 PM 52.0°F11.1°C 48.9°F9.4°C 89% 2.0 mph NNE3.2 kmh NNE 0.9 mph1.4 kmh -338605.1 mb 0.06 in1.5 mm 0.00 in/hr0.0 mm/hr 0.44 in11.2 mm
09:47 PM 52.0°F11.1°C 48.9°F9.4°C 89% 2.0 mph NNE3.2 kmh NNE 2.0 mph3.2 kmh -338605.1 mb 0.04 in1.0 mm 0.00 in/hr0.0 mm/hr 0.44 in11.2 mm
09:52 PM 52.0°F11.1°C 48.9°F9.4°C 89% 2.0 mph NNE3.2 kmh NNE -- -338605.1 mb 0.00 in0.0 mm 0.00 in/hr0.0 mm/hr 0.44 in11.2 mm
09:57 PM 52.2°F11.2°C 49.1°F9.5°C 89% 0.9 mph NNE1.4 kmh NNE -- -338605.1 mb 0.00 in0.0 mm 0.00 in/hr0.0 mm/hr 0.44 in11.2 mm
10:02 PM 52.5°F11.4°C 49.5°F9.7°C 89% Calm Calm -- -338605.1 mb 0.00 in0.0 mm 0.00 in/hr0.0 mm/hr 0.44 in11.2 mm
10:07 PM 52.5°F11.4°C 49.5°F9.7°C 89% Calm Calm 2.0 mph3.2 kmh -338605.1 mb 0.00 in0.0 mm 0.00 in/hr0.0 mm/hr 0.44 in11.2 mm
10:12 PM 52.9°F11.6°C 49.6°F9.8°C 89% 0.9 mph NNE1.4 kmh NNE 2.9 mph4.7 kmh -338605.1 mb 0.00 in0.0 mm 0.00 in/hr0.0 mm/hr 0.44 in11.2 mm
10:17 PM 53.1°F11.7°C 49.6°F9.8°C 88% 2.0 mph NNE3.2 kmh NNE 2.0 mph3.2 kmh -338605.1 mb 0.00 in0.0 mm 0.00 in/hr0.0 mm/hr 0.44 in11.2 mm
10:22 PM 53.1°F11.7°C 49.6°F9.8°C 88% 2.0 mph NNE3.2 kmh NNE 2.9 mph4.7 kmh -338605.1 mb 0.00 in0.0 mm 0.00 in/hr0.0 mm/hr 0.45 in11.4 mm
10:27 PM 53.2°F11.8°C 49.5°F9.7°C 87% 2.0 mph NNE3.2 kmh NNE -- -338605.1 mb 0.00 in0.0 mm 0.00 in/hr0.0 mm/hr 0.45 in11.4 mm
10:32 PM 53.1°F11.7°C 49.3°F9.6°C 87% 0.9 mph NNE1.4 kmh NNE 0.9 mph1.4 kmh -338605.1 mb 0.04 in1.0 mm 0.48 in/hr12.2 mm/hr 0.45 in11.4 mm
10:37 PM 52.9°F11.6°C 49.1°F9.5°C 87% 0.9 mph NNE1.4 kmh NNE 0.9 mph1.4 kmh -338605.1 mb 0.09 in2.3 mm 0.60 in/hr15.2 mm/hr 0.46 in11.7 mm
10:42 PM 52.5°F11.4°C 48.7°F9.3°C 87% 0.9 mph NNE1.4 kmh NNE 0.9 mph1.4 kmh -338605.1 mb 0.09 in2.3 mm 0.00 in/hr0.0 mm/hr 0.47 in11.9 mm
10:47 PM 52.5°F11.4°C 48.7°F9.3°C 87% 0.9 mph NNE1.4 kmh NNE -- -338605.1 mb 0.06 in1.5 mm 0.00 in/hr0.0 mm/hr 0.47 in11.9 mm
10:52 PM 52.5°F11.4°C 49.1°F9.5°C 88% Calm Calm -- -338605.1 mb 0.04 in1.0 mm 0.00 in/hr0.0 mm/hr 0.47 in11.9 mm
10:57 PM 52.5°F11.4°C 49.1°F9.5°C 88% Calm Calm -- -338605.1 mb 0.04 in1.0 mm 0.00 in/hr0.0 mm/hr 0.48 in12.2 mm
11:02 PM 52.3°F11.3°C 48.9°F9.4°C 88% Calm Calm -- -338605.1 mb 0.04 in1.0 mm 0.00 in/hr0.0 mm/hr 0.48 in12.2 mm
11:07 PM 52.3°F11.3°C 48.9°F9.4°C 88% Calm Calm -- -338605.1 mb 0.04 in1.0 mm 0.00 in/hr0.0 mm/hr 0.48 in12.2 mm
11:12 PM 52.2°F11.2°C 48.7°F9.3°C 88% Calm Calm -- -338605.1 mb 0.00 in0.0 mm 0.00 in/hr0.0 mm/hr 0.48 in12.2 mm
11:17 PM 52.2°F11.2°C 48.7°F9.3°C 88% Calm Calm -- -338605.1 mb 0.00 in0.0 mm 0.00 in/hr0.0 mm/hr 0.48 in12.2 mm
11:22 PM 52.2°F11.2°C 48.7°F9.3°C 88% Calm Calm 2.0 mph3.2 kmh -338605.1 mb 0.00 in0.0 mm 0.00 in/hr0.0 mm/hr 0.48 in12.2 mm
11:27 PM 52.2°F11.2°C 48.7°F9.3°C 88% 0.9 mph NNE1.4 kmh NNE 2.9 mph4.7 kmh -338605.1 mb 0.00 in0.0 mm 0.00 in/hr0.0 mm/hr 0.48 in12.2 mm
11:32 PM 52.2°F11.2°C 48.7°F9.3°C 88% 0.9 mph NNE1.4 kmh NNE -- -338605.1 mb 0.00 in0.0 mm 0.00 in/hr0.0 mm/hr 0.48 in12.2 mm
11:37 PM 52.2°F11.2°C 48.7°F9.3°C 88% 2.0 mph NNE3.2 kmh NNE 0.9 mph1.4 kmh -338605.1 mb 0.00 in0.0 mm 0.00 in/hr0.0 mm/hr 0.48 in12.2 mm
11:42 PM 52.2°F11.2°C 48.7°F9.3°C 88% 0.9 mph NNE1.4 kmh NNE -- -338605.1 mb 0.00 in0.0 mm 0.00 in/hr0.0 mm/hr 0.48 in12.2 mm
11:47 PM 52.2°F11.2°C 49.1°F9.5°C 89% 0.9 mph NNE1.4 kmh NNE -- -338605.1 mb 0.00 in0.0 mm 0.00 in/hr0.0 mm/hr 0.48 in12.2 mm
11:52 PM 52.2°F11.2°C 49.1°F9.5°C 89% Calm Calm -- -338605.1 mb 0.00 in0.0 mm 0.00 in/hr0.0 mm/hr 0.48 in12.2 mm
11:57 PM 52.5°F11.4°C 49.5°F9.7°C 89% Calm Calm -- -338605.1 mb 0.00 in0.0 mm 0.00 in/hr0.0 mm/hr 0.48 in12.2 mm